Time;durP1;ratioP1;P1;durP2;ratioP2;P2;SDS_P1;SDS_P2;PMS_P1;PMS_P2;Temp;Humidity;BMP_temperature;BMP_pressure;BME280_temperature;BME280_humidity;BME280_pressure;Samples;Min_cycle;Max_cycle;Signal;HPM_P1;HPM_P2
2022/11/10 00:02:12;;;;;;;0.10;0.10;;;;;;;8.50;81.41;100014.16;6178541;23;20027;-64
2022/11/10 00:04:56;;;;;;;0.10;0.10;;;;;;;8.48;81.52;100023.66;6183582;23;20392;-64
2022/11/10 00:07:41;;;;;;;0.20;0.17;;;;;;;8.45;81.40;99995.00;6179630;23;20035;-64
2022/11/10 00:10:27;;;;;;;0.10;0.10;;;;;;;8.49;81.35;100000.78;6217309;23;20020;-64
2022/11/10 00:13:11;;;;;;;0.13;0.13;;;;;;;8.51;81.56;100004.09;6220077;23;20028;-67
2022/11/10 00:19:01;;;;;;;0.10;0.10;;;;;;;8.46;81.42;100002.13;6175808;23;20067;-64
2022/11/10 00:21:46;;;;;;;0.10;0.10;;;;;;;8.45;81.63;100002.38;6216197;23;20021;-64
2022/11/10 00:24:30;;;;;;;0.10;0.10;;;;;;;8.48;81.64;99996.41;6209293;23;20058;-64
2022/11/10 00:27:16;;;;;;;0.10;0.10;;;;;;;8.47;81.61;99997.50;6213373;23;20021;-64
2022/11/10 00:30:00;;;;;;;0.10;0.10;;;;;;;8.43;81.62;99996.34;6206364;23;20119;-64
2022/11/10 00:32:47;;;;;;;0.10;0.10;;;;;;;8.42;81.69;100005.59;6208240;23;20031;-63
2022/11/10 00:35:31;;;;;;;0.10;0.10;;;;;;;8.40;81.86;100005.03;6220910;23;20028;-64
2022/11/10 00:38:15;;;;;;;0.10;0.10;;;;;;;8.40;81.82;99994.97;6208460;23;20027;-64
2022/11/10 00:41:00;;;;;;;0.10;0.10;;;;;;;8.45;81.54;100005.91;6207345;23;20021;-64
2022/11/10 00:43:46;;;;;;;0.10;0.10;;;;;;;8.42;81.81;100000.97;6213393;23;20032;-64
2022/11/10 00:46:31;;;;;;;0.10;0.10;;;;;;;8.42;81.83;99992.81;6208139;23;20052;-64
2022/11/10 00:49:15;;;;;;;0.10;0.10;;;;;;;8.38;81.81;99994.41;6205830;23;20044;-64
2022/11/10 00:52:00;;;;;;;0.10;0.10;;;;;;;8.39;81.83;99976.97;6202757;23;20028;-64
2022/11/10 00:54:44;;;;;;;0.10;0.10;;;;;;;8.42;82.12;99984.63;6215002;23;20024;-64
2022/11/10 00:57:29;;;;;;;0.10;0.10;;;;;;;8.41;81.68;99980.28;6206599;23;20024;-64
2022/11/10 01:00:16;;;;;;;0.10;0.10;;;;;;;8.40;81.61;99977.78;6204528;23;20028;-64
2022/11/10 01:03:01;;;;;;;0.10;0.10;;;;;;;8.36;81.76;99983.75;6204246;23;20032;-64
2022/11/10 01:05:45;;;;;;;0.10;0.10;;;;;;;8.33;81.71;99976.09;6216615;23;20051;-64
2022/11/10 01:08:30;;;;;;;0.10;0.10;;;;;;;8.33;81.80;99981.53;6204674;23;20388;-64
2022/11/10 01:11:16;;;;;;;0.10;0.10;;;;;;;8.35;81.88;99986.72;6206587;23;20024;-64
2022/11/10 01:14:00;;;;;;;0.10;0.10;;;;;;;8.34;81.89;99976.91;6204711;23;20217;-64
2022/11/10 01:16:46;;;;;;;0.10;0.10;;;;;;;8.33;82.19;99975.25;6213263;23;20460;-67
2022/11/10 01:19:31;;;;;;;0.10;0.10;;;;;;;8.33;82.00;99981.53;6205428;23;20028;-64
2022/11/10 01:22:15;;;;;;;0.10;0.10;;;;;;;8.33;81.92;99973.38;6202941;23;20020;-66
2022/11/10 01:24:59;;;;;;;0.10;0.10;;;;;;;8.36;82.17;99972.03;6203890;23;20364;-64
2022/11/10 01:27:44;;;;;;;0.10;0.10;;;;;;;8.38;82.22;99978.88;6204263;23;20017;-65
2022/11/10 01:30:29;;;;;;;0.10;0.10;;;;;;;8.36;81.94;99970.13;6215623;23;20024;-64
2022/11/10 01:33:16;;;;;;;0.10;0.10;;;;;;;8.36;81.94;99961.16;6160325;23;20373;-64
2022/11/10 01:36:01;;;;;;;0.20;0.10;;;;;;;8.35;82.28;99964.94;6205126;23;20059;-64
2022/11/10 01:38:45;;;;;;;0.10;0.10;;;;;;;8.34;82.32;99974.19;6175276;23;20016;-64
2022/11/10 01:41:30;;;;;;;0.10;0.10;;;;;;;8.35;82.12;99967.66;6207229;23;20020;-66
2022/11/10 01:44:17;;;;;;;0.10;0.10;;;;;;;8.31;82.14;99969.25;6215157;23;20135;-65
2022/11/10 01:47:02;;;;;;;0.10;0.10;;;;;;;8.32;82.32;99966.28;6180573;23;20031;-68
2022/11/10 01:49:48;;;;;;;0.10;0.10;;;;;;;8.32;82.32;99995.41;6216207;23;20048;-64
2022/11/10 01:52:33;;;;;;;0.10;0.10;;;;;;;8.31;82.34;99963.78;6204798;23;20020;-65
2022/11/10 01:55:17;;;;;;;0.20;0.20;;;;;;;8.30;82.34;99967.59;6217792;23;20367;-64
2022/11/10 01:58:03;;;;;;;0.10;0.10;;;;;;;8.25;82.51;99971.09;6205915;23;20106;-65
2022/11/10 02:00:48;;;;;;;0.10;0.10;;;;;;;8.25;82.66;99976.53;6207549;23;20530;-63
2022/11/10 02:03:37;;;;;;;0.10;0.10;;;;;;;8.25;82.58;99965.63;6205384;23;20032;-64
2022/11/10 02:06:26;;;;;;;0.10;0.10;;;;;;;8.25;82.61;99965.63;6183818;23;20360;-64
2022/11/10 02:09:11;;;;;;;0.10;0.10;;;;;;;8.27;82.36;99965.41;6216304;23;20031;-64
2022/11/10 02:11:56;;;;;;;0.20;0.20;;;;;;;8.21;82.84;99972.69;6213935;23;20028;-64
2022/11/10 02:14:42;;;;;;;0.10;0.10;;;;;;;8.23;82.62;99973.25;6206374;23;20032;-65
2022/11/10 02:17:26;;;;;;;0.10;0.10;;;;;;;8.23;82.86;99970.53;6205886;23;20044;-64
2022/11/10 02:20:13;;;;;;;0.10;0.10;;;;;;;8.23;83.04;99975.97;6216888;23;20035;-63
2022/11/10 02:23:09;;;;;;;0.30;0.13;;;;;;;8.22;82.82;99977.88;6204227;23;20395;-64
2022/11/10 02:25:54;;;;;;;0.10;0.10;;;;;;;8.21;82.95;99980.84;6215367;23;20526;-67
2022/11/10 02:28:39;;;;;;;0.15;0.10;;;;;;;8.19;82.99;99974.84;6205257;23;20025;-67
2022/11/10 02:31:23;;;;;;;0.10;0.10;;;;;;;8.18;83.13;99965.84;6203392;23;20020;-67
2022/11/10 02:34:08;;;;;;;0.10;0.10;;;;;;;8.17;83.13;99972.34;6215845;23;20028;-67
2022/11/10 02:36:52;;;;;;;0.10;0.10;;;;;;;8.16;83.17;99970.72;6216382;23;20482;-68
2022/11/10 02:39:38;;;;;;;0.10;0.10;;;;;;;8.15;83.30;99968.25;6217395;23;20027;-67
2022/11/10 02:42:22;;;;;;;0.10;0.10;;;;;;;8.15;83.13;99999.03;6213854;23;20021;-65
2022/11/10 02:45:08;;;;;;;0.13;0.13;;;;;;;8.11;83.19;99969.81;6204764;23;20043;-67
2022/11/10 02:47:52;;;;;;;0.10;0.10;;;;;;;8.09;83.28;99978.28;6204730;23;20379;-68
2022/11/10 02:50:37;;;;;;;0.10;0.10;;;;;;;8.08;83.23;99973.91;6176500;23;20020;-64
2022/11/10 02:53:22;;;;;;;0.10;0.10;;;;;;;8.05;83.40;99977.13;6207128;23;20028;-65
2022/11/10 02:56:08;;;;;;;0.20;0.10;;;;;;;8.02;83.46;99977.63;6206587;23;20408;-64
2022/11/10 02:58:53;;;;;;;0.10;0.10;;;;;;;8.00;83.42;99974.34;6206162;23;20020;-64
2022/11/10 03:01:37;;;;;;;0.10;0.10;;;;;;;8.02;83.46;99972.19;6214585;23;20028;-64
2022/11/10 03:04:21;;;;;;;0.10;0.10;;;;;;;8.03;83.33;99990.16;6200806;23;20035;-64
2022/11/10 03:07:06;;;;;;;0.10;0.10;;;;;;;8.00;83.72;99990.66;6216374;23;20364;-64
2022/11/10 03:09:50;;;;;;;0.10;0.10;;;;;;;7.95;83.69;99992.25;6202665;23;20396;-64
2022/11/10 03:12:36;;;;;;;0.10;0.10;;;;;;;7.91;83.80;99973.94;6204390;23;20021;-64
2022/11/10 03:15:21;;;;;;;0.10;0.10;;;;;;;7.87;84.18;99979.06;6212654;23;20027;-64
2022/11/10 03:18:05;;;;;;;0.10;0.10;;;;;;;7.90;83.92;99975.03;6212976;23;20028;-64
2022/11/10 03:20:50;;;;;;;0.10;0.10;;;;;;;7.91;83.77;99971.22;6215832;23;20027;-64
2022/11/10 03:23:35;;;;;;;0.55;0.20;;;;;;;7.93;83.65;99994.41;6207342;23;20451;-64
2022/11/10 03:26:21;;;;;;;0.10;0.10;;;;;;;7.90;83.54;99975.88;6218144;23;20016;-64
2022/11/10 03:29:07;;;;;;;0.10;0.10;;;;;;;7.91;83.59;99990.28;6216024;23;20055;-64
2022/11/10 03:31:51;;;;;;;0.10;0.10;;;;;;;7.90;83.45;99978.59;6207512;23;20058;-65
2022/11/10 03:34:36;;;;;;;0.10;0.10;;;;;;;7.92;83.47;99976.44;6180715;23;20029;-64
2022/11/10 03:37:20;;;;;;;0.10;0.10;;;;;;;7.94;83.57;99968.00;6206946;23;20024;-64
2022/11/10 03:40:06;;;;;;;0.10;0.10;;;;;;;7.95;83.43;99964.19;6177924;23;20024;-64
2022/11/10 03:42:51;;;;;;;0.10;0.10;;;;;;;7.91;83.14;99974.78;6206204;23;20027;-62
2022/11/10 03:45:37;;;;;;;0.10;0.10;;;;;;;7.92;83.17;99970.16;6207471;23;20020;-64
2022/11/10 03:48:22;;;;;;;0.15;0.15;;;;;;;7.92;83.25;99968.25;6219447;23;20027;-66
2022/11/10 03:51:06;;;;;;;0.10;0.10;;;;;;;7.91;83.51;99960.34;6207623;23;20025;-66
2022/11/10 03:53:50;;;;;;;0.10;0.10;;;;;;;7.92;83.31;99973.72;6184587;23;20020;-67
2022/11/10 03:56:35;;;;;;;0.10;0.10;;;;;;;7.88;83.30;99952.69;6209985;23;20036;-68
2022/11/10 03:59:19;;;;;;;0.10;0.10;;;;;;;7.86;83.35;99947.47;6182823;23;20020;-68
2022/11/10 04:02:05;;;;;;;0.10;0.10;;;;;;;7.86;83.56;99949.41;6207069;23;20353;-68
2022/11/10 04:11:01;;;;;;;0.10;0.10;;;;;;;7.88;83.13;99958.97;6180997;23;20063;-67
2022/11/10 04:16:49;;;;;;;0.10;0.10;;;;;;;7.86;83.01;99952.94;6216790;23;20024;-68
2022/11/10 04:19:35;;;;;;;0.10;0.10;;;;;;;7.79;83.14;99944.13;6184049;23;20025;-67
2022/11/10 04:23:25;;;;;;;0.10;0.10;;;;;;;7.84;83.53;99962.44;6150803;23;20361;-64
2022/11/10 04:25:24;;;;;;;0.10;0.10;;;;;;;7.85;83.33;99955.91;6178607;23;20387;-64
2022/11/10 04:28:09;;;;;;;0.10;0.10;;;;;;;7.87;83.25;99961.94;6185577;23;20024;-64
2022/11/10 04:30:53;;;;;;;0.10;0.10;;;;;;;7.87;83.13;99962.72;6177127;23;20032;-65
2022/11/10 04:33:38;;;;;;;0.10;0.10;;;;;;;7.82;83.11;99953.72;6179829;23;20017;-65
2022/11/10 04:36:26;;;;;;;0.10;0.10;;;;;;;7.75;82.93;99949.25;6179364;23;20020;-65
2022/11/10 04:39:10;;;;;;;0.10;0.10;;;;;;;7.70;83.21;99965.53;6147923;23;20025;-64
2022/11/10 04:41:55;;;;;;;0.10;0.10;;;;;;;7.63;83.11;99957.53;6129419;23;20025;-65
2022/11/10 04:44:39;;;;;;;0.20;0.20;;;;;;;7.65;82.93;99963.56;6180062;23;20021;-65
2022/11/10 04:47:24;;;;;;;0.10;0.10;;;;;;;7.62;82.95;99960.50;6179809;23;20354;-64
2022/11/10 04:50:08;;;;;;;0.10;0.10;;;;;;;7.59;83.20;99975.47;6156768;23;20052;-65
2022/11/10 04:52:54;;;;;;;0.10;0.10;;;;;;;7.61;83.13;99978.75;6187699;23;20055;-65
2022/11/10 04:55:40;;;;;;;0.10;0.10;;;;;;;7.61;82.96;99976.03;6181041;23;20025;-64
2022/11/10 04:58:24;;;;;;;0.10;0.10;;;;;;;7.61;83.02;99997.78;6182846;23;20025;-64
2022/11/10 05:01:10;;;;;;;0.20;0.20;;;;;;;7.56;82.81;99983.28;6181659;23;20107;-64
2022/11/10 05:03:55;;;;;;;0.10;0.10;;;;;;;7.52;82.59;99989.25;6149548;23;20028;-65
2022/11/10 05:06:39;;;;;;;0.10;0.10;;;;;;;7.50;83.01;99985.94;6184267;23;20485;-65
2022/11/10 05:09:25;;;;;;;1.10;0.10;;;;;;;7.38;82.64;99977.84;6186607;23;20417;-65
2022/11/10 05:12:09;;;;;;;0.10;0.10;;;;;;;7.48;82.57;99979.91;6148535;23;20036;-65
2022/11/10 05:14:54;;;;;;;0.10;0.10;;;;;;;7.43;82.51;99985.28;6174210;23;20486;-65
2022/11/10 05:17:39;;;;;;;0.10;0.10;;;;;;;7.38;82.57;99977.06;6181503;23;20143;-64
2022/11/10 05:20:24;;;;;;;0.10;0.10;;;;;;;7.42;82.46;99988.28;6193075;23;20108;-65
2022/11/10 05:26:15;;;;;;;0.10;0.10;;;;;;;7.29;82.89;99979.38;6207997;23;20055;-65
2022/11/10 05:28:59;;;;;;;0.10;0.10;;;;;;;7.26;83.02;99979.03;6214799;23;20102;-64
2022/11/10 05:31:44;;;;;;;0.10;0.10;;;;;;;7.28;82.73;99985.88;6204899;23;20043;-64
2022/11/10 05:34:28;;;;;;;0.13;0.10;;;;;;;7.24;82.76;99988.28;6218222;23;20032;-64
2022/11/10 05:37:13;;;;;;;0.10;0.10;;;;;;;7.23;82.40;99981.19;6211739;23;20111;-64
2022/11/10 05:39:57;;;;;;;0.20;0.20;;;;;;;7.17;82.37;99986.78;6203262;23;20020;-64
2022/11/10 05:42:44;;;;;;;0.10;0.10;;;;;;;7.11;82.47;99976.91;6214134;23;20070;-63
2022/11/10 05:45:28;;;;;;;0.20;0.20;;;;;;;7.11;82.27;99985.06;6215968;23;20048;-64
2022/11/10 05:48:13;;;;;;;0.10;0.10;;;;;;;7.13;82.27;99982.94;6219453;23;20259;-64
2022/11/10 05:50:58;;;;;;;0.10;0.10;;;;;;;7.19;81.72;99982.75;6220441;23;20453;-64
2022/11/10 05:53:42;;;;;;;0.10;0.10;;;;;;;7.23;81.42;99988.50;6217473;23;20428;-64
2022/11/10 05:56:26;;;;;;;0.10;0.10;;;;;;;7.22;81.22;99990.41;6181905;23;20025;-64
2022/11/10 05:59:12;;;;;;;0.13;0.13;;;;;;;7.20;80.93;99980.84;6208411;23;20047;-64
2022/11/10 06:01:57;;;;;;;0.13;0.13;;;;;;;7.16;80.81;99987.84;6218924;23;20020;-64
2022/11/10 06:04:41;;;;;;;0.20;0.20;;;;;;;7.18;80.58;99985.72;6220786;23;20036;-64
2022/11/10 06:07:26;;;;;;;0.10;0.10;;;;;;;7.19;80.87;99990.91;6219596;23;20020;-66
2022/11/10 06:10:11;;;;;;;0.10;0.10;;;;;;;7.17;80.67;99982.16;6183716;23;20027;-66
2022/11/10 06:12:56;;;;;;;0.10;0.10;;;;;;;7.14;80.58;99977.22;6184552;23;20078;-66
2022/11/10 06:15:41;;;;;;;0.10;0.10;;;;;;;7.18;80.46;99988.44;6151193;23;20025;-67
2022/11/10 06:18:26;;;;;;;0.10;0.10;;;;;;;7.17;80.37;99976.72;6191615;23;20031;-66
2022/11/10 06:21:11;;;;;;;1.15;0.20;;;;;;;7.13;80.25;99988.38;6190753;23;20021;-66
2022/11/10 06:23:55;;;;;;;0.17;0.17;;;;;;;7.11;80.27;99988.59;6216090;23;20020;-66
2022/11/10 06:26:40;;;;;;;0.10;0.10;;;;;;;7.08;80.41;99984.47;6209072;23;20514;-67
2022/11/10 06:29:24;;;;;;;0.20;0.20;;;;;;;7.05;80.24;99976.81;6215635;23;20507;-66
2022/11/10 06:32:10;;;;;;;0.10;0.10;;;;;;;7.03;80.47;99976.25;6204945;23;20805;-67
2022/11/10 06:34:55;;;;;;;0.10;0.10;;;;;;;6.97;80.48;99973.69;6216627;23;20025;-66
2022/11/10 06:37:39;;;;;;;0.10;0.10;;;;;;;6.97;80.64;99987.28;6193558;23;20103;-66
2022/11/10 06:40:25;;;;;;;0.10;0.10;;;;;;;6.99;80.63;99988.69;6216960;23;20026;-67
2022/11/10 06:43:09;;;;;;;0.35;0.20;;;;;;;7.08;80.40;100000.78;6218718;23;20099;-67
2022/11/10 06:45:55;;;;;;;0.20;0.20;;;;;;;6.97;80.30;99979.13;6206407;23;20063;-67
2022/11/10 06:48:41;;;;;;;0.20;0.20;;;;;;;7.07;80.25;99979.28;6209059;23;20042;-67
2022/11/10 06:51:26;;;;;;;0.10;0.10;;;;;;;7.13;80.14;99983.72;6216940;23;20021;-66
2022/11/10 06:54:10;;;;;;;0.20;0.20;;;;;;;7.16;79.58;99979.69;6217659;23;20445;-66
2022/11/10 06:56:55;;;;;;;0.10;0.10;;;;;;;7.16;79.47;99977.78;6178873;23;20376;-66
2022/11/10 06:59:40;;;;;;;0.10;0.10;;;;;;;7.18;79.44;99986.56;6183995;23;20091;-67
2022/11/10 07:02:24;;;;;;;0.20;0.20;;;;;;;7.16;79.42;99985.94;6183855;23;20020;-66
2022/11/10 07:05:10;;;;;;;0.20;0.20;;;;;;;7.17;79.59;99986.78;6219828;23;20021;-64
2022/11/10 07:08:00;;;;;;;0.10;0.10;;;;;;;7.17;79.25;99981.34;6218736;23;20025;-64
2022/11/10 07:10:51;;;;;;;0.13;0.13;;;;;;;7.22;79.37;99979.53;6209490;23;20020;-64
2022/11/10 07:13:35;;;;;;;0.40;0.20;;;;;;;7.41;78.84;99992.03;6209396;23;20458;-66
2022/11/10 07:16:20;;;;;;;0.10;0.10;;;;;;;7.53;78.00;99992.75;6218086;23;20020;-67
2022/11/10 07:19:05;;;;;;;0.10;0.10;;;;;;;7.64;77.72;99975.53;6217549;23;20021;-67
2022/11/10 07:21:51;;;;;;;0.25;0.20;;;;;;;7.71;76.96;99991.66;6219691;23;20016;-67
2022/11/10 07:24:36;;;;;;;0.20;0.20;;;;;;;7.71;77.24;99990.84;6207681;23;20040;-67
2022/11/10 07:27:22;;;;;;;0.10;0.10;;;;;;;7.67;77.08;99998.69;6208683;23;20103;-64
2022/11/10 07:30:08;;;;;;;0.13;0.13;;;;;;;7.58;77.30;99994.75;6210329;23;20131;-64
2022/11/10 07:32:59;;;;;;;0.10;0.10;;;;;;;7.53;77.59;99992.75;6208921;23;20044;-64
2022/11/10 07:35:51;;;;;;;0.20;0.20;;;;;;;7.58;77.80;99992.03;6219959;23;20038;-64
2022/11/10 07:38:42;;;;;;;0.20;0.20;;;;;;;7.76;77.05;99999.09;6208183;23;20020;-64
2022/11/10 07:41:27;;;;;;;0.20;0.20;;;;;;;7.91;76.70;100001.19;6209380;23;20108;-64
2022/11/10 07:44:12;;;;;;;0.55;0.20;;;;;;;8.12;75.73;99994.09;6216081;23;20031;-64
2022/11/10 07:46:57;;;;;;;0.20;0.20;;;;;;;8.20;75.37;99992.81;6218039;23;20460;-64
2022/11/10 07:49:41;;;;;;;0.28;0.28;;;;;;;8.29;74.58;99996.75;6191825;23;20020;-64
2022/11/10 07:52:26;;;;;;;0.70;0.22;;;;;;;8.28;74.57;100000.56;6178948;23;20024;-64
2022/11/10 07:55:12;;;;;;;0.20;0.20;;;;;;;8.09;75.00;100003.59;6206052;23;20108;-64
2022/11/10 07:57:57;;;;;;;0.20;0.20;;;;;;;7.92;75.79;100008.28;6207926;23;20020;-64
2022/11/10 08:00:42;;;;;;;0.20;0.20;;;;;;;7.91;76.41;100012.06;6194990;23;20020;-64
2022/11/10 08:03:26;;;;;;;0.10;0.10;;;;;;;7.90;76.51;100003.09;6207805;23;20025;-64
2022/11/10 08:06:11;;;;;;;0.20;0.20;;;;;;;7.91;76.28;100002.03;6217554;23;20266;-64
2022/11/10 08:08:55;;;;;;;0.20;0.20;;;;;;;7.89;76.30;100008.78;6185748;23;20052;-64
2022/11/10 08:11:41;;;;;;;0.10;0.10;;;;;;;7.82;76.63;100008.97;6214950;23;20027;-64
2022/11/10 08:14:26;;;;;;;0.10;0.10;;;;;;;7.81;77.01;100012.75;6184931;23;20058;-64
2022/11/10 08:17:10;;;;;;;0.20;0.20;;;;;;;7.85;76.83;100008.44;6208611;23;20386;-64
2022/11/10 08:19:55;;;;;;;0.20;0.20;;;;;;;7.87;76.77;100005.50;6216444;23;20020;-64
2022/11/10 08:22:40;;;;;;;0.10;0.10;;;;;;;7.90;76.92;100002.25;6218034;23;20474;-64
2022/11/10 08:25:25;;;;;;;0.10;0.10;;;;;;;7.88;76.73;99991.63;6209046;23;20020;-64
2022/11/10 08:28:13;;;;;;;0.10;0.10;;;;;;;7.90;76.59;99991.38;6208303;23;20268;-64
2022/11/10 08:30:57;;;;;;;;;;;;;;;7.88;76.68;99988.91;6219250;23;20099;-64
2022/11/10 08:33:41;;;;;;;0.10;0.10;;;;;;;7.94;76.40;99987.06;6206679;23;19920;-64
2022/11/10 08:36:26;;;;;;;0.10;0.10;;;;;;;7.99;76.06;99986.31;6207769;23;20364;-64
2022/11/10 08:39:11;;;;;;;0.20;0.20;;;;;;;8.07;76.18;99985.88;6181063;23;20071;-65
2022/11/10 08:41:55;;;;;;;0.10;0.10;;;;;;;8.08;75.83;99984.78;6210359;23;20021;-66
2022/11/10 08:44:41;;;;;;;0.20;0.20;;;;;;;8.02;76.04;99983.91;6182190;23;20024;-67
2022/11/10 08:47:25;;;;;;;0.20;0.20;;;;;;;7.99;76.31;99995.31;6209133;23;20021;-67
2022/11/10 08:50:09;;;;;;;0.20;0.20;;;;;;;8.02;76.29;99992.06;6180049;23;20031;-67
2022/11/10 08:52:54;;;;;;;0.20;0.20;;;;;;;8.00;76.19;99991.50;6217887;23;20099;-66
2022/11/10 08:55:39;;;;;;;0.25;0.25;;;;;;;8.03;75.66;99999.16;6181094;23;20031;-67
2022/11/10 08:58:23;;;;;;;0.20;0.20;;;;;;;8.07;76.04;99996.78;6219060;23;20023;-66
2022/11/10 09:01:10;;;;;;;0.10;0.10;;;;;;;8.07;75.60;99986.69;6209877;23;20024;-64
2022/11/10 09:03:55;;;;;;;0.20;0.20;;;;;;;8.12;75.66;99991.38;6218794;23;20016;-64
2022/11/10 09:06:39;;;;;;;0.10;0.10;;;;;;;8.15;75.56;99990.84;6182165;23;20067;-64
2022/11/10 09:09:25;;;;;;;0.20;0.20;;;;;;;8.20;75.41;99993.66;6205788;23;20017;-64
2022/11/10 09:12:09;;;;;;;0.38;0.20;;;;;;;8.21;74.98;99986.31;6219000;23;20549;-64
2022/11/10 09:14:54;;;;;;;0.20;0.20;;;;;;;8.26;75.09;99991.00;6218342;23;20074;-64
2022/11/10 09:17:40;;;;;;;0.10;0.10;;;;;;;8.26;75.12;99991.81;6182596;23;20063;-64
2022/11/10 09:20:25;;;;;;;0.28;0.20;;;;;;;8.35;75.07;99981.28;6209502;23;20017;-66
2022/11/10 09:23:12;;;;;;;0.10;0.10;;;;;;;8.47;74.45;99992.06;6209732;23;20478;-67
2022/11/10 09:25:57;;;;;;;0.25;0.20;;;;;;;8.55;74.17;99996.25;6208422;23;20048;-67
2022/11/10 09:28:41;;;;;;;0.25;0.25;;;;;;;8.54;74.06;99983.69;6205401;23;20534;-67
2022/11/10 09:31:25;;;;;;;0.20;0.15;;;;;;;8.55;74.04;99994.34;6206572;23;20028;-67
2022/11/10 09:34:12;;;;;;;0.20;0.20;;;;;;;8.52;74.07;99997.56;6185911;23;20020;-67
2022/11/10 09:36:57;;;;;;;0.20;0.20;;;;;;;8.47;74.33;99990.13;6182173;23;20025;-67
2022/11/10 09:39:41;;;;;;;0.20;0.20;;;;;;;8.42;74.51;99990.09;6206748;23;20143;-67
2022/11/10 09:42:31;;;;;;;0.15;0.15;;;;;;;8.46;74.30;99961.22;6219396;23;20042;-67
2022/11/10 09:45:22;;;;;;;0.30;0.30;;;;;;;8.69;73.40;99997.50;6208446;23;20020;-64
2022/11/10 09:48:14;;;;;;;0.20;0.20;;;;;;;8.60;73.73;99983.50;6196095;23;20020;-64
2022/11/10 09:51:05;;;;;;;0.20;0.20;;;;;;;8.55;73.87;99986.16;6194901;23;20024;-64
2022/11/10 09:53:54;;;;;;;0.17;0.17;;;;;;;8.48;74.38;99971.88;6216529;23;20016;-64
2022/11/10 09:56:40;;;;;;;0.20;0.20;;;;;;;8.48;74.54;99955.53;6207329;23;20367;-64
2022/11/10 09:59:27;;;;;;;0.10;0.10;;;;;;;8.54;74.08;99959.97;6205680;23;20023;-65
2022/11/10 10:02:22;;;;;;;0.20;0.20;;;;;;;8.53;74.35;99958.34;6215729;23;20024;-66
2022/11/10 10:05:28;;;;;;;0.20;0.20;;;;;;;8.53;74.15;99977.41;6207007;23;20020;-64
2022/11/10 10:08:24;;;;;;;0.10;0.10;;;;;;;8.57;74.30;99958.66;6180110;23;20029;-65
2022/11/10 10:11:18;;;;;;;0.20;0.20;;;;;;;8.64;74.36;99968.28;6218871;23;20151;-64
2022/11/10 10:14:17;;;;;;;0.20;0.20;;;;;;;8.74;73.47;99964.81;6207390;23;20029;-65
2022/11/10 10:17:13;;;;;;;0.20;0.20;;;;;;;8.86;73.25;99970.09;6207756;23;20017;-65
2022/11/10 10:20:08;;;;;;;0.20;0.20;;;;;;;8.90;73.43;99973.97;6218516;23;20031;-65
2022/11/10 10:23:03;;;;;;;0.10;0.10;;;;;;;8.91;73.13;99948.34;6218161;23;20115;-65
2022/11/10 10:25:52;;;;;;;0.10;0.10;;;;;;;9.00;72.90;99956.03;6207397;23;20020;-64
2022/11/10 10:28:38;;;;;;;0.28;0.28;;;;;;;9.03;72.91;99967.25;6181612;23;20028;-65
2022/11/10 10:31:25;;;;;;;1.00;0.20;;;;;;;9.03;73.12;99963.69;6208704;23;20127;-64
2022/11/10 10:34:11;;;;;;;;;;;;;;;9.00;72.75;99966.94;6219247;23;20020;-65
2022/11/10 10:36:56;;;;;;;0.20;0.20;;;;;;;8.91;73.17;99980.22;6220061;23;20381;-64
2022/11/10 10:39:46;;;;;;;0.10;0.10;;;;;;;8.87;73.43;99958.09;6219378;23;20016;-64
2022/11/10 10:42:34;;;;;;;0.20;0.20;;;;;;;8.91;73.39;99952.97;6209600;23;20055;-65
2022/11/10 10:45:21;;;;;;;0.20;0.20;;;;;;;8.98;73.18;99959.03;6209841;23;20020;-65
2022/11/10 10:48:21;;;;;;;;;;;;;;;9.05;73.11;99951.44;6208278;23;20043;-65
2022/11/10 10:51:07;;;;;;;0.10;0.10;;;;;;;9.07;73.05;99962.09;6184061;23;19926;-63
2022/11/10 10:53:51;;;;;;;0.20;0.20;;;;;;;9.14;72.84;99956.44;6221429;23;20459;-64
2022/11/10 10:56:37;;;;;;;0.22;0.20;;;;;;;9.18;72.49;99976.63;6221126;23;20095;-65
2022/11/10 10:59:23;;;;;;;0.20;0.20;;;;;;;9.18;72.71;99963.81;6219823;23;20044;-65
2022/11/10 11:02:27;;;;;;;0.45;0.20;;;;;;;9.22;72.84;99961.38;6182898;23;20021;-64
2022/11/10 11:05:15;;;;;;;0.38;0.28;;;;;;;9.20;72.52;99967.09;6211257;23;20069;-65
2022/11/10 11:08:01;;;;;;;0.10;0.10;;;;;;;9.18;72.71;99968.44;6211437;23;20066;-64
2022/11/10 11:10:46;;;;;;;0.20;0.20;;;;;;;9.07;72.88;99941.09;6211331;23;20039;-64
2022/11/10 11:13:30;;;;;;;0.40;0.20;;;;;;;8.97;73.10;99948.38;6211183;23;20069;-65
2022/11/10 11:16:16;;;;;;;0.13;0.13;;;;;;;9.05;73.02;99951.44;6220232;23;20024;-64
2022/11/10 11:19:01;;;;;;;0.10;0.10;;;;;;;9.02;73.24;99940.22;6209114;23;20021;-64
2022/11/10 11:22:01;;;;;;;0.52;0.20;;;;;;;8.98;73.33;99953.59;6161132;23;20023;-65
2022/11/10 11:24:53;;;;;;;0.17;0.17;;;;;;;9.03;73.61;99952.78;6197143;23;20055;-65
2022/11/10 11:27:48;;;;;;;0.10;0.10;;;;;;;9.06;73.22;99946.81;6210093;23;20138;-67
2022/11/10 11:30:46;;;;;;;0.10;0.10;;;;;;;9.08;72.89;99952.84;6209418;23;20020;-67
2022/11/10 11:33:41;;;;;;;0.10;0.10;;;;;;;9.03;73.17;99956.34;6183027;23;20115;-67
2022/11/10 11:36:34;;;;;;;0.10;0.10;;;;;;;9.01;73.45;99963.97;6219426;23;20048;-67
2022/11/10 11:39:35;;;;;;;0.20;0.20;;;;;;;8.99;73.25;99966.13;6209888;23;20027;-65
2022/11/10 11:42:39;;;;;;;0.50;0.20;;;;;;;8.96;73.40;99963.09;6196675;23;20075;-64
2022/11/10 11:45:32;;;;;;;0.20;0.20;;;;;;;8.91;73.38;99975.63;6217270;23;20556;-64
2022/11/10 11:48:35;;;;;;;0.20;0.20;;;;;;;8.93;73.39;99978.06;6208683;23;20024;-64
2022/11/10 11:51:27;;;;;;;0.20;0.20;;;;;;;8.90;73.60;99979.41;6220010;23;20027;-64
2022/11/10 11:54:34;;;;;;;0.47;0.20;;;;;;;8.83;73.80;99978.00;6220198;23;20140;-65
2022/11/10 11:57:25;;;;;;;;;;;;;;;8.83;73.97;99970.63;6208210;23;20029;-67
2022/11/10 12:00:13;;;;;;;0.10;0.10;;;;;;;8.86;73.72;99972.00;6205773;23;19919;-67
2022/11/10 12:03:28;;;;;;;0.10;0.10;;;;;;;8.84;73.83;99977.72;6219897;23;20020;-67
2022/11/10 12:06:30;;;;;;;0.10;0.10;;;;;;;8.85;73.67;99959.47;6209725;23;20024;-65
2022/11/10 12:09:25;;;;;;;0.10;0.10;;;;;;;8.88;74.03;99967.94;6208049;23;20021;-65
2022/11/10 12:12:37;;;;;;;0.20;0.20;;;;;;;8.91;74.00;99972.03;6180777;23;20525;-65
2022/11/10 12:15:33;;;;;;;0.13;0.13;;;;;;;8.90;74.05;99965.78;6209464;23;20024;-65
2022/11/10 12:18:28;;;;;;;0.17;0.17;;;;;;;8.90;73.84;99970.41;6184719;23;20396;-65
2022/11/10 12:21:22;;;;;;;0.20;0.20;;;;;;;8.85;74.16;99938.47;6216455;23;20298;-65
2022/11/10 12:24:21;;;;;;;0.20;0.20;;;;;;;8.78;74.07;99948.78;6217780;23;20028;-64
2022/11/10 12:27:13;;;;;;;0.10;0.10;;;;;;;8.80;74.16;99962.97;6218982;23;20400;-65
2022/11/10 12:30:03;;;;;;;0.43;0.20;;;;;;;8.76;74.15;99956.38;6182509;23;20487;-65
2022/11/10 12:32:55;;;;;;;0.17;0.17;;;;;;;8.72;74.64;99980.63;6217772;23;20025;-64
2022/11/10 12:35:42;;;;;;;0.10;0.10;;;;;;;8.65;74.78;99986.28;6218393;23;20024;-67
2022/11/10 12:38:34;;;;;;;0.20;0.20;;;;;;;8.65;74.87;99994.44;6219227;23;20031;-67
2022/11/10 12:41:20;;;;;;;0.20;0.20;;;;;;;8.67;74.89;100007.00;6210609;23;20027;-64
2022/11/10 12:44:17;;;;;;;0.28;0.20;;;;;;;8.61;74.90;99989.75;6186366;23;20017;-65
2022/11/10 12:47:06;;;;;;;0.15;0.10;;;;;;;8.59;75.55;100000.09;6208661;23;20021;-67
2022/11/10 12:50:02;;;;;;;0.38;0.20;;;;;;;8.60;75.27;99997.13;6216258;23;20297;-67
2022/11/10 12:52:52;;;;;;;0.10;0.10;;;;;;;8.62;75.35;100015.94;6206458;23;20341;-67
2022/11/10 12:55:41;;;;;;;0.20;0.13;;;;;;;8.61;75.35;100012.41;6207600;23;20668;-64
2022/11/10 12:58:27;;;;;;;0.10;0.10;;;;;;;8.61;75.29;100020.59;6205978;23;20044;-64
2022/11/10 13:01:16;;;;;;;0.13;0.13;;;;;;;8.57;75.72;100005.78;6194808;23;20352;-64
2022/11/10 13:04:01;;;;;;;0.13;0.13;;;;;;;8.54;75.63;100016.41;6185663;23;20075;-64
2022/11/10 13:06:48;;;;;;;0.10;0.10;;;;;;;8.47;75.78;100014.66;6214876;23;20024;-64
2022/11/10 13:09:35;;;;;;;0.50;0.17;;;;;;;8.48;75.82;100015.50;6184729;23;20332;-64
2022/11/10 13:12:21;;;;;;;0.20;0.20;;;;;;;8.47;76.11;100009.22;6183840;23;20047;-65
2022/11/10 13:15:39;;;;;;;0.30;0.20;;;;;;;8.45;76.00;100008.66;6209737;23;20040;-64
2022/11/10 13:18:51;;;;;;;0.20;0.20;;;;;;;8.46;76.30;100021.19;6206065;23;20431;-65
2022/11/10 13:22:10;;;;;;;0.20;0.20;;;;;;;8.44;76.10;100006.19;6216015;23;20021;-67
2022/11/10 13:25:28;;;;;;;0.20;0.20;;;;;;;8.43;76.23;100010.81;6211360;23;20055;-67
2022/11/10 13:28:13;;;;;;;0.10;0.10;;;;;;;8.43;76.26;100029.88;6209061;23;20083;-67
2022/11/10 13:30:57;;;;;;;0.10;0.10;;;;;;;8.42;76.68;100057.38;6217409;23;20047;-67
2022/11/10 13:34:04;;;;;;;0.10;0.10;;;;;;;8.42;76.53;100041.84;6203864;23;20380;-67